Aeroporto :
LOGIN :

Iscrizione | Disclaimer

   EN    FR    IT 

 










Sommario :    VFR   VFR Marginale   IFR   IFR Intensivo   IFR Molto Intensivo
Visibilità : 
Base nubi : 
>= 8 km
>= 3000ft
5 / 8 km
1000 / 3000 ft
1500m / 5 km
500 / 1000 ft
800 / 1500m
200 / 500 ft
< 800m
< 200 ft
Simboli :   Temporali  Nebbia  Neve Forte  Precipitazioni Forti  Vento > 20 kt
SIGMETs :   Varie  Temporali  Ghiacco  Turbolenza  Onda orograficha  Ceneri Vulcaniche






- Altitudine del aeroporto : 1649 ft
- Codice IATA : HHN


EDFH - Frankfurt-Hahn Rhineland-Palatinate

ULTIMO METAR :
  • 181220Z 15008KT 110V180 CAVOK 25/12 Q1023

METARs OBSOLETI :
  • 181150Z 16008KT 120V190 CAVOK 25/11 Q1023
  • 181120Z 12008KT 070V160 CAVOK 25/12 Q1023
  • 181050Z 15008KT 070V190 CAVOK 24/12 Q1023
  • 181020Z 13007KT 090V180 CAVOK 24/13 Q1023
  • 180950Z 17007KT 130V210 CAVOK 23/13 Q1023

TAF TAF EDFH
Valido dal 18 a 12 ore il 19 a 12 ore UTC


181100Z 1812/1912 14009KT CAVOK
BECMG 1908/1910 20009KT
PROB30
TEMPO 1910/1912 23015G25KT SHRA BKN045CB



MetMap, La meteo Aeronautica in un colpo d'occhio ! - Copyright ORBIFLY Dicembre 2007 - Disclaimer

ORBIFLY MET'MAP TEAM :

Programmazione e sviluppo : Alexandra Zaïnal
Concezione : Baudouin d'Aumeries
Supporto tecnico e logistico : Manuel Goepfert
Aiuto : Marc-Olivier Méhu
Aiuto per la traduzione : Arnaldo La Scala

Contatto : metmap@orbifly.com




FONTI E CREDITI :

   NOAA